createdAt,value
2023-04-18T00:00:16.257Z,92.93
2023-04-18T00:05:16.242Z,93.24
2023-04-18T00:10:16.126Z,93.44
2023-04-18T00:15:16.067Z,94.06
2023-04-18T00:20:15.993Z,95.03
2023-04-18T00:25:15.924Z,95.64
2023-04-18T00:30:15.859Z,96.57
2023-04-18T00:35:15.805Z,97.19
2023-04-18T00:40:15.746Z,97.60
2023-04-18T00:45:15.664Z,98.47
2023-04-18T00:50:15.603Z,98.78
2023-04-18T00:55:15.509Z,98.88
2023-04-18T01:00:15.465Z,98.98
2023-04-18T01:05:15.393Z,99.09
2023-04-18T01:10:15.327Z,99.29
2023-04-18T01:15:15.249Z,99.45
2023-04-18T01:20:15.186Z,99.56
2023-04-18T01:25:15.125Z,99.96
2023-04-18T01:30:15.051Z,99.99
2023-04-18T01:35:14.988Z,99.99
2023-04-18T01:40:14.917Z,99.99
2023-04-18T01:45:14.868Z,99.99
2023-04-18T01:50:14.784Z,99.99
2023-04-18T01:55:14.726Z,99.99
2023-04-18T02:00:14.650Z,99.99
2023-04-18T02:05:14.687Z,99.99
2023-04-18T02:10:14.668Z,99.99
2023-04-18T02:15:14.702Z,99.99
2023-04-18T02:20:14.744Z,99.99
2023-04-18T02:25:14.714Z,99.99
2023-04-18T02:30:14.709Z,99.99
2023-04-18T02:35:14.678Z,99.99
2023-04-18T02:40:14.128Z,99.99
2023-04-18T02:45:14.066Z,99.99
2023-04-18T02:50:13.997Z,99.99
2023-04-18T02:55:13.916Z,99.99
2023-04-18T03:00:13.853Z,99.99
2023-04-18T03:05:13.777Z,99.99
2023-04-18T03:10:13.718Z,99.99
2023-04-18T03:15:13.647Z,99.99
2023-04-18T03:20:13.583Z,99.99
2023-04-18T03:25:13.517Z,99.99
2023-04-18T03:30:13.455Z,99.99
2023-04-18T03:35:13.383Z,99.99
2023-04-18T03:40:13.330Z,99.99
2023-04-18T03:45:13.249Z,99.99
2023-04-18T03:50:13.201Z,99.99
2023-04-18T03:55:13.129Z,99.99
2023-04-18T04:00:13.064Z,99.99
2023-04-18T04:05:12.995Z,99.99
2023-04-18T04:10:12.928Z,99.99
2023-04-18T04:15:12.878Z,99.99
2023-04-18T04:20:12.794Z,99.99
2023-04-18T04:25:12.723Z,99.99
2023-04-18T04:30:13.475Z,99.99
2023-04-18T04:35:12.582Z,99.99
2023-04-18T04:40:12.531Z,99.99
2023-04-18T04:45:12.444Z,99.99
2023-04-18T04:50:12.396Z,99.99
2023-04-18T04:55:12.320Z,99.99
2023-04-18T05:00:12.259Z,99.99
2023-04-18T05:05:12.228Z,99.61
2023-04-18T05:10:12.125Z,99.92
2023-04-18T05:15:12.042Z,99.71
2023-04-18T05:20:12.012Z,98.99
2023-04-18T05:25:11.914Z,98.79
2023-04-18T05:30:11.860Z,99.10
2023-04-18T05:35:11.780Z,98.38
2023-04-18T05:40:11.724Z,98.27
2023-04-18T05:45:11.647Z,98.17
2023-04-18T05:50:11.592Z,97.97
2023-04-18T05:55:11.532Z,97.86
2023-04-18T06:00:11.458Z,97.25
2023-04-18T06:05:11.681Z,97.04
2023-04-18T06:10:11.325Z,97.04
2023-04-18T06:15:11.243Z,96.38
2023-04-18T06:20:11.196Z,95.35
2023-04-18T06:25:11.120Z,95.15
2023-04-18T06:30:11.061Z,94.69
2023-04-18T06:35:10.985Z,94.90
2023-04-18T06:40:10.941Z,94.79
2023-04-18T06:45:10.840Z,94.59
2023-04-18T06:50:10.803Z,93.56
2023-04-18T06:55:10.725Z,92.90
2023-04-18T07:00:10.651Z,95.63
2023-04-18T07:05:10.578Z,89.82
2023-04-18T07:10:10.526Z,87.06
2023-04-18T07:15:10.469Z,84.85
2023-04-18T07:20:12.170Z,84.13
2023-04-18T07:25:10.312Z,83.83
2023-04-18T07:30:10.257Z,83.07
2023-04-18T07:35:10.182Z,80.17
2023-04-18T07:40:10.131Z,77.41
2023-04-18T07:45:10.049Z,77.14
2023-04-18T07:50:09.999Z,73.80
2023-04-18T07:55:09.920Z,73.08
2023-04-18T08:00:09.865Z,74.27
2023-04-18T08:05:09.918Z,77.52
2023-04-18T08:10:09.747Z,80.59
2023-04-18T08:15:09.657Z,81.75
2023-04-18T08:20:09.590Z,83.59
2023-04-18T08:25:09.532Z,83.59
2023-04-18T08:30:09.454Z,82.53
2023-04-18T08:35:09.387Z,82.26
2023-04-18T08:40:09.328Z,80.69
2023-04-18T08:45:09.257Z,81.55
2023-04-18T08:50:09.188Z,82.26
2023-04-18T08:55:09.113Z,80.93
2023-04-18T09:00:09.075Z,81.10
2023-04-18T09:05:08.976Z,80.79
2023-04-18T09:10:08.920Z,79.63
2023-04-18T09:15:08.848Z,76.83
2023-04-18T09:20:08.781Z,74.24
2023-04-18T09:25:08.715Z,74.96
2023-04-18T09:30:08.652Z,77.96
2023-04-18T09:35:08.596Z,77.85
2023-04-18T09:40:08.521Z,77.72
2023-04-18T09:45:08.507Z,78.98
2023-04-18T09:50:08.407Z,79.69
2023-04-18T09:55:08.329Z,79.33
2023-04-18T10:00:08.248Z,79.66
2023-04-18T10:05:08.251Z,79.08
2023-04-18T10:10:08.115Z,78.77
2023-04-18T10:15:08.062Z,78.67
2023-04-18T10:20:07.997Z,77.89
2023-04-18T10:25:07.910Z,79.11
2023-04-18T10:30:09.073Z,79.25
2023-04-18T10:35:07.786Z,79.93
2023-04-18T10:40:07.729Z,79.73
2023-04-18T10:45:07.660Z,79.66
2023-04-18T10:50:07.609Z,79.62
2023-04-18T10:55:07.533Z,79.83
2023-04-18T11:00:07.467Z,79.62
2023-04-18T11:05:07.386Z,80.13
2023-04-18T11:10:07.318Z,79.69
2023-04-18T11:15:07.247Z,79.58
2023-04-18T11:20:07.189Z,79.48
2023-04-18T11:25:07.113Z,79.75
2023-04-18T11:30:07.056Z,78.80
2023-04-18T11:35:07.011Z,78.80
2023-04-18T11:40:06.918Z,78.25
2023-04-18T11:45:06.858Z,78.42
2023-04-18T11:50:06.797Z,77.30
2023-04-18T11:55:06.719Z,77.81
2023-04-18T12:00:06.655Z,77.53
2023-04-18T12:05:07.093Z,76.41
2023-04-18T12:10:06.527Z,76.72
2023-04-18T12:15:06.441Z,76.51
2023-04-18T12:20:06.412Z,82.84
2023-04-18T12:25:06.309Z,74.71
2023-04-18T12:30:06.261Z,76.25
2023-04-18T12:35:06.173Z,78.11
2023-04-18T12:40:06.110Z,79.47
2023-04-18T12:45:06.034Z,80.19
2023-04-18T12:50:05.974Z,80.33
2023-04-18T12:55:05.928Z,80.73
2023-04-18T13:00:05.839Z,81.86
2023-04-18T13:05:05.817Z,81.49
2023-04-18T13:10:05.709Z,82.51
2023-04-18T13:15:05.644Z,82.20
2023-04-18T13:20:05.584Z,83.16
2023-04-18T13:25:05.512Z,83.67
2023-04-18T13:30:05.438Z,84.17
2023-04-18T13:35:05.371Z,84.73
2023-04-18T13:40:05.315Z,85.24
2023-04-18T13:45:05.227Z,85.34
2023-04-18T13:50:05.182Z,85.65
2023-04-18T13:55:05.097Z,85.38
2023-04-18T14:00:05.058Z,84.97
2023-04-18T14:05:05.119Z,84.97
2023-04-18T14:10:04.918Z,85.38
2023-04-18T14:15:04.832Z,86.81
2023-04-18T14:20:04.776Z,87.16
2023-04-18T14:25:04.696Z,87.57
2023-04-18T14:30:04.670Z,88.79
2023-04-18T14:35:04.567Z,88.38
2023-04-18T14:40:04.505Z,88.07
2023-04-18T14:45:04.427Z,86.85
2023-04-18T14:50:04.373Z,86.24
2023-04-18T14:55:04.306Z,85.62
2023-04-18T15:00:04.248Z,85.62
2023-04-18T15:05:04.182Z,85.66
2023-04-18T15:10:04.115Z,86.59
2023-04-18T15:15:04.032Z,86.89
2023-04-18T15:20:03.987Z,87.40
2023-04-18T15:25:03.901Z,88.01
2023-04-18T15:30:03.867Z,88.53
2023-04-18T15:35:03.779Z,88.73
2023-04-18T15:40:03.710Z,89.39
2023-04-18T15:45:03.646Z,90.10
2023-04-18T15:50:03.571Z,91.22
2023-04-18T15:55:03.509Z,92.05
2023-04-18T16:00:03.509Z,92.25
2023-04-18T16:05:03.358Z,92.76
2023-04-18T16:10:03.322Z,93.42
2023-04-18T16:15:03.230Z,93.42
2023-04-18T16:20:03.150Z,93.32
2023-04-18T16:25:03.098Z,93.32
2023-04-18T16:30:03.019Z,93.21
2023-04-18T16:35:02.962Z,93.32
2023-04-18T16:40:02.893Z,93.62
2023-04-18T16:45:02.827Z,93.62
2023-04-18T16:50:02.756Z,93.62
2023-04-18T16:55:02.700Z,93.62
2023-04-18T17:00:02.649Z,93.73
2023-04-18T17:05:02.623Z,93.62
2023-04-18T17:10:02.498Z,93.62
2023-04-18T17:15:02.434Z,93.32
2023-04-18T17:20:02.363Z,93.42
2023-04-18T17:25:02.294Z,93.52
2023-04-18T17:30:02.236Z,93.83
2023-04-18T17:35:02.151Z,93.93
2023-04-18T17:40:02.099Z,93.83
2023-04-18T17:45:02.015Z,93.73
2023-04-18T17:50:01.941Z,93.52
2023-04-18T17:55:01.883Z,93.83
2023-04-18T18:00:01.864Z,93.93
2023-04-18T18:05:01.753Z,93.83
2023-04-18T18:10:01.742Z,93.73
2023-04-18T18:15:01.644Z,93.73
2023-04-18T18:20:01.576Z,93.93
2023-04-18T18:25:01.486Z,93.93
2023-04-18T18:30:01.448Z,93.93
2023-04-18T18:35:01.360Z,93.93
2023-04-18T18:40:01.289Z,93.93
2023-04-18T18:45:01.225Z,94.03
2023-04-18T18:50:01.162Z,94.14
2023-04-18T18:55:01.113Z,94.34
2023-04-18T19:00:01.013Z,94.65
2023-04-18T19:05:01.086Z,94.95
2023-04-18T19:10:00.886Z,95.47
2023-04-18T19:15:00.830Z,95.88
2023-04-18T19:20:00.759Z,96.18
2023-04-18T19:25:00.709Z,96.39
2023-04-18T19:30:00.625Z,96.69
2023-04-18T19:35:00.555Z,97.72
2023-04-18T19:40:00.594Z,97.86
2023-04-18T19:45:00.444Z,98.17
2023-04-18T19:50:00.341Z,98.38
2023-04-18T19:55:00.291Z,98.58
2023-04-18T20:00:00.210Z,98.89
2023-04-18T20:05:00.402Z,99.71
2023-04-18T20:10:00.077Z,99.99
2023-04-18T20:15:00.028Z,99.99
2023-04-18T20:19:59.936Z,99.99
2023-04-18T20:24:59.881Z,99.99
2023-04-18T20:29:59.805Z,99.99
2023-04-18T20:34:59.756Z,99.99
2023-04-18T20:39:59.668Z,99.99
2023-04-18T20:44:59.616Z,99.99
2023-04-18T20:49:59.532Z,99.99
2023-04-18T20:54:59.469Z,99.99
2023-04-18T20:59:59.420Z,99.99
2023-04-18T21:04:59.345Z,99.99
2023-04-18T21:09:59.264Z,99.99
2023-04-18T21:14:59.214Z,99.99
2023-04-18T21:19:59.126Z,99.99
2023-04-18T21:24:59.078Z,99.99
2023-04-18T21:29:58.994Z,99.99
2023-04-18T21:34:58.935Z,99.99
2023-04-18T21:39:58.864Z,99.99
2023-04-18T21:44:58.800Z,99.99
2023-04-18T21:49:58.727Z,99.99
2023-04-18T21:54:58.664Z,99.99
2023-04-18T21:59:58.600Z,99.99
2023-04-18T22:04:58.537Z,99.99
2023-04-18T22:09:58.455Z,99.99
2023-04-18T22:14:58.416Z,99.99
2023-04-18T22:19:58.321Z,99.60
2023-04-18T22:24:58.274Z,98.27
2023-04-18T22:29:58.187Z,96.84
2023-04-18T22:34:58.141Z,93.87
2023-04-18T22:39:58.057Z,91.62
2023-04-18T22:44:58.002Z,90.35
2023-04-18T22:49:57.917Z,89.94
2023-04-18T22:54:57.861Z,89.73
2023-04-18T22:59:57.790Z,88.45
2023-04-18T23:04:57.736Z,88.14
2023-04-18T23:09:57.654Z,87.32
2023-04-18T23:14:57.606Z,86.91
2023-04-18T23:19:57.566Z,87.21
2023-04-18T23:24:57.504Z,85.62
2023-04-18T23:29:57.385Z,85.52
2023-04-18T23:34:57.359Z,85.82
2023-04-18T23:39:57.254Z,86.23
2023-04-18T23:44:57.200Z,86.03
2023-04-18T23:49:57.117Z,85.93
2023-04-18T23:54:57.068Z,85.93
2023-04-18T23:59:56.994Z,86.54
